sensor_id;sensor_type;location;lat;lon;timestamp;pressure;altitude;pressure_sealevel;temperature;humidity
32033;BME280;31720;52.638;9.216;2023-06-22T00:02:44;101649.72;;;21.10;89.07
32033;BME280;31720;52.638;9.216;2023-06-22T00:05:46;101650.81;;;21.07;89.13
32033;BME280;31720;52.638;9.216;2023-06-22T00:08:47;101655.13;;;20.98;88.43
32033;BME280;31720;52.638;9.216;2023-06-22T00:11:48;101644.91;;;20.92;89.57
32033;BME280;31720;52.638;9.216;2023-06-22T00:14:49;101648.72;;;20.90;91.25
32033;BME280;31720;52.638;9.216;2023-06-22T00:17:52;101651.78;;;20.85;91.40
32033;BME280;31720;52.638;9.216;2023-06-22T00:20:54;101648.50;;;20.82;92.09
32033;BME280;31720;52.638;9.216;2023-06-22T00:23:57;101652.38;;;20.77;92.26
32033;BME280;31720;52.638;9.216;2023-06-22T00:26:59;101647.28;;;20.74;90.81
32033;BME280;31720;52.638;9.216;2023-06-22T00:30:00;101655.22;;;20.65;89.86
32033;BME280;31720;52.638;9.216;2023-06-22T00:33:03;101649.25;;;20.61;92.22
32033;BME280;31720;52.638;9.216;2023-06-22T00:36:07;101649.53;;;20.58;92.44
32033;BME280;31720;52.638;9.216;2023-06-22T00:39:09;101654.88;;;20.58;92.79
32033;BME280;31720;52.638;9.216;2023-06-22T00:42:11;101651.34;;;20.58;93.06
32033;BME280;31720;52.638;9.216;2023-06-22T00:45:12;101648.78;;;20.56;92.93
32033;BME280;31720;52.638;9.216;2023-06-22T00:48:15;101649.28;;;20.50;93.81
32033;BME280;31720;52.638;9.216;2023-06-22T00:51:16;101647.47;;;20.50;92.76
32033;BME280;31720;52.638;9.216;2023-06-22T00:54:24;101650.13;;;20.50;90.96
32033;BME280;31720;52.638;9.216;2023-06-22T00:57:26;101645.88;;;20.48;92.68
32033;BME280;31720;52.638;9.216;2023-06-22T01:00:28;101643.22;;;20.48;93.48
32033;BME280;31720;52.638;9.216;2023-06-22T01:03:31;101636.16;;;20.47;93.26
32033;BME280;31720;52.638;9.216;2023-06-22T01:06:35;101631.31;;;20.41;93.94
32033;BME280;31720;52.638;9.216;2023-06-22T01:09:48;101626.34;;;20.36;92.03
32033;BME280;31720;52.638;9.216;2023-06-22T01:12:53;101630.22;;;20.32;91.69
32033;BME280;31720;52.638;9.216;2023-06-22T01:16:00;101624.28;;;20.28;90.72
32033;BME280;31720;52.638;9.216;2023-06-22T01:19:12;101622.13;;;20.22;90.94
32033;BME280;31720;52.638;9.216;2023-06-22T01:22:20;101621.88;;;20.14;91.82
32033;BME280;31720;52.638;9.216;2023-06-22T01:25:28;101620.56;;;20.09;95.24
32033;BME280;31720;52.638;9.216;2023-06-22T01:28:42;101605.00;;;20.02;96.74
32033;BME280;31720;52.638;9.216;2023-06-22T01:31:45;101609.97;;;20.07;95.01
32033;BME280;31720;52.638;9.216;2023-06-22T01:34:47;101601.13;;;20.07;93.04
32033;BME280;31720;52.638;9.216;2023-06-22T01:37:49;101611.94;;;20.05;93.61
32033;BME280;31720;52.638;9.216;2023-06-22T01:40:51;101609.88;;;19.97;93.01
32033;BME280;31720;52.638;9.216;2023-06-22T01:43:55;101609.88;;;19.97;92.71
32033;BME280;31720;52.638;9.216;2023-06-22T01:46:56;101609.25;;;19.94;94.37
32033;BME280;31720;52.638;9.216;2023-06-22T01:49:58;101613.63;;;19.95;93.88
32033;BME280;31720;52.638;9.216;2023-06-22T01:52:59;101619.91;;;19.94;94.94
32033;BME280;31720;52.638;9.216;2023-06-22T01:56:01;101615.94;;;19.88;93.20
32033;BME280;31720;52.638;9.216;2023-06-22T01:59:09;101614.72;;;19.81;92.94
32033;BME280;31720;52.638;9.216;2023-06-22T02:02:15;101610.47;;;19.79;93.33
32033;BME280;31720;52.638;9.216;2023-06-22T02:05:18;101617.63;;;19.78;93.08
32033;BME280;31720;52.638;9.216;2023-06-22T02:08:23;101618.00;;;19.73;93.01
32033;BME280;31720;52.638;9.216;2023-06-22T02:11:26;101611.94;;;19.71;93.56
32033;BME280;31720;52.638;9.216;2023-06-22T02:14:31;101618.34;;;19.69;93.60
32033;BME280;31720;52.638;9.216;2023-06-22T02:17:33;101618.22;;;19.70;93.46
32033;BME280;31720;52.638;9.216;2023-06-22T02:20:36;101614.34;;;19.63;94.87
32033;BME280;31720;52.638;9.216;2023-06-22T02:23:38;101622.56;;;19.60;95.32
32033;BME280;31720;52.638;9.216;2023-06-22T02:26:39;101617.25;;;19.60;96.31
32033;BME280;31720;52.638;9.216;2023-06-22T02:29:43;101623.31;;;19.62;96.19
32033;BME280;31720;52.638;9.216;2023-06-22T02:32:45;101618.00;;;19.62;95.50
32033;BME280;31720;52.638;9.216;2023-06-22T02:35:46;101615.25;;;19.51;96.54
32033;BME280;31720;52.638;9.216;2023-06-22T02:38:49;101611.34;;;19.44;95.68
32033;BME280;31720;52.638;9.216;2023-06-22T02:41:51;101626.13;;;19.37;98.85
32033;BME280;31720;52.638;9.216;2023-06-22T02:44:54;101618.63;;;19.42;98.57
32033;BME280;31720;52.638;9.216;2023-06-22T02:47:55;101625.16;;;19.38;98.93
32033;BME280;31720;52.638;9.216;2023-06-22T02:50:57;101635.19;;;19.34;100.00
32033;BME280;31720;52.638;9.216;2023-06-22T02:53:58;101631.81;;;19.32;100.00
32033;BME280;31720;52.638;9.216;2023-06-22T02:57:00;101631.94;;;19.31;100.00
32033;BME280;31720;52.638;9.216;2023-06-22T03:00:05;101639.41;;;19.25;100.00
32033;BME280;31720;52.638;9.216;2023-06-22T03:03:16;101637.09;;;19.21;100.00
32033;BME280;31720;52.638;9.216;2023-06-22T03:06:18;101640.97;;;19.17;100.00
32033;BME280;31720;52.638;9.216;2023-06-22T03:09:23;101644.72;;;19.14;100.00
32033;BME280;31720;52.638;9.216;2023-06-22T03:12:24;101643.13;;;19.12;100.00
32033;BME280;31720;52.638;9.216;2023-06-22T03:15:27;101644.84;;;19.13;100.00
32033;BME280;31720;52.638;9.216;2023-06-22T03:18:29;101640.22;;;19.15;100.00
32033;BME280;31720;52.638;9.216;2023-06-22T03:21:30;101642.16;;;19.13;100.00
32033;BME280;31720;52.638;9.216;2023-06-22T03:24:32;101641.03;;;19.04;100.00
32033;BME280;31720;52.638;9.216;2023-06-22T03:27:34;101644.28;;;18.96;99.98
32033;BME280;31720;52.638;9.216;2023-06-22T03:30:37;101647.16;;;18.93;100.00
32033;BME280;31720;52.638;9.216;2023-06-22T03:33:38;101641.94;;;18.92;100.00
32033;BME280;31720;52.638;9.216;2023-06-22T03:36:40;101635.03;;;18.89;100.00
32033;BME280;31720;52.638;9.216;2023-06-22T03:39:41;101641.72;;;18.95;100.00
32033;BME280;31720;52.638;9.216;2023-06-22T03:42:42;101646.00;;;18.85;100.00
32033;BME280;31720;52.638;9.216;2023-06-22T03:45:45;101647.13;;;18.82;100.00
32033;BME280;31720;52.638;9.216;2023-06-22T03:48:47;101647.44;;;18.78;100.00
32033;BME280;31720;52.638;9.216;2023-06-22T03:51:48;101646.69;;;18.75;100.00
32033;BME280;31720;52.638;9.216;2023-06-22T03:54:49;101646.94;;;18.60;100.00
32033;BME280;31720;52.638;9.216;2023-06-22T03:57:50;101649.94;;;18.55;100.00
32033;BME280;31720;52.638;9.216;2023-06-22T04:00:54;101652.47;;;18.57;100.00
32033;BME280;31720;52.638;9.216;2023-06-22T04:03:56;101651.22;;;18.62;100.00
32033;BME280;31720;52.638;9.216;2023-06-22T04:06:57;101654.09;;;18.59;100.00
32033;BME280;31720;52.638;9.216;2023-06-22T04:09:58;101654.22;;;18.58;100.00
32033;BME280;31720;52.638;9.216;2023-06-22T04:13:00;101648.97;;;18.56;100.00
32033;BME280;31720;52.638;9.216;2023-06-22T04:16:03;101658.91;;;18.54;100.00
32033;BME280;31720;52.638;9.216;2023-06-22T04:19:04;101661.44;;;18.56;100.00
32033;BME280;31720;52.638;9.216;2023-06-22T04:22:06;101656.00;;;18.57;100.00
32033;BME280;31720;52.638;9.216;2023-06-22T04:25:07;101663.78;;;18.60;100.00
32033;BME280;31720;52.638;9.216;2023-06-22T04:28:09;101665.72;;;18.58;100.00
32033;BME280;31720;52.638;9.216;2023-06-22T04:31:13;101654.94;;;18.60;100.00
32033;BME280;31720;52.638;9.216;2023-06-22T04:34:15;101652.91;;;18.63;100.00
32033;BME280;31720;52.638;9.216;2023-06-22T04:37:16;101652.66;;;18.66;100.00
32033;BME280;31720;52.638;9.216;2023-06-22T04:40:18;101649.81;;;18.69;100.00
32033;BME280;31720;52.638;9.216;2023-06-22T04:43:20;101650.44;;;18.73;100.00
32033;BME280;31720;52.638;9.216;2023-06-22T04:46:22;101650.97;;;18.78;100.00
32033;BME280;31720;52.638;9.216;2023-06-22T04:49:24;101657.75;;;18.82;100.00
32033;BME280;31720;52.638;9.216;2023-06-22T04:52:32;101657.75;;;18.82;100.00
32033;BME280;31720;52.638;9.216;2023-06-22T04:55:33;101651.47;;;18.83;100.00
32033;BME280;31720;52.638;9.216;2023-06-22T04:58:38;101639.00;;;18.84;100.00
32033;BME280;31720;52.638;9.216;2023-06-22T05:01:40;101641.91;;;18.81;100.00
32033;BME280;31720;52.638;9.216;2023-06-22T05:04:42;101644.66;;;18.79;100.00
32033;BME280;31720;52.638;9.216;2023-06-22T05:07:44;101645.63;;;18.78;100.00
32033;BME280;31720;52.638;9.216;2023-06-22T05:10:48;101635.69;;;18.80;100.00
32033;BME280;31720;52.638;9.216;2023-06-22T05:13:49;101631.97;;;18.83;100.00
32033;BME280;31720;52.638;9.216;2023-06-22T05:16:52;101630.56;;;18.90;100.00
32033;BME280;31720;52.638;9.216;2023-06-22T05:19:53;101622.69;;;18.88;100.00
32033;BME280;31720;52.638;9.216;2023-06-22T05:22:55;101618.69;;;18.94;100.00
32033;BME280;31720;52.638;9.216;2023-06-22T05:25:56;101623.38;;;19.03;100.00
32033;BME280;31720;52.638;9.216;2023-06-22T05:28:58;101624.81;;;19.07;100.00
32033;BME280;31720;52.638;9.216;2023-06-22T05:32:02;101622.69;;;19.12;100.00
32033;BME280;31720;52.638;9.216;2023-06-22T05:35:04;101625.09;;;19.15;100.00
32033;BME280;31720;52.638;9.216;2023-06-22T05:38:06;101626.69;;;19.18;100.00
32033;BME280;31720;52.638;9.216;2023-06-22T05:41:08;101621.72;;;19.24;100.00
32033;BME280;31720;52.638;9.216;2023-06-22T05:44:09;101627.06;;;19.24;100.00
32033;BME280;31720;52.638;9.216;2023-06-22T05:47:12;101631.94;;;19.31;100.00
32033;BME280;31720;52.638;9.216;2023-06-22T05:50:13;101623.69;;;19.34;100.00
32033;BME280;31720;52.638;9.216;2023-06-22T05:53:14;101632.31;;;19.37;100.00
32033;BME280;31720;52.638;9.216;2023-06-22T05:56:16;101626.00;;;19.38;100.00
32033;BME280;31720;52.638;9.216;2023-06-22T05:59:18;101633.91;;;19.40;100.00
32033;BME280;31720;52.638;9.216;2023-06-22T06:02:20;101635.81;;;19.38;100.00
32033;BME280;31720;52.638;9.216;2023-06-22T06:05:22;101635.47;;;19.42;100.00
32033;BME280;31720;52.638;9.216;2023-06-22T06:08:25;101622.63;;;19.47;100.00
32033;BME280;31720;52.638;9.216;2023-06-22T06:11:26;101631.38;;;19.49;100.00
32033;BME280;31720;52.638;9.216;2023-06-22T06:14:28;101630.06;;;19.55;100.00
32033;BME280;31720;52.638;9.216;2023-06-22T06:17:30;101624.25;;;19.61;100.00
32033;BME280;31720;52.638;9.216;2023-06-22T06:20:32;101613.25;;;19.66;100.00
32033;BME280;31720;52.638;9.216;2023-06-22T06:23:33;101617.75;;;19.76;100.00
32033;BME280;31720;52.638;9.216;2023-06-22T06:26:35;101611.22;;;19.81;100.00
32033;BME280;31720;52.638;9.216;2023-06-22T06:29:36;101618.72;;;19.87;100.00
32033;BME280;31720;52.638;9.216;2023-06-22T06:32:39;101612.28;;;19.89;100.00
32033;BME280;31720;52.638;9.216;2023-06-22T06:35:40;101613.63;;;19.95;100.00
32033;BME280;31720;52.638;9.216;2023-06-22T06:38:42;101609.63;;;20.00;100.00
32033;BME280;31720;52.638;9.216;2023-06-22T06:41:43;101606.22;;;20.10;100.00
32033;BME280;31720;52.638;9.216;2023-06-22T06:44:44;101613.03;;;20.14;100.00
32033;BME280;31720;52.638;9.216;2023-06-22T06:47:47;101608.28;;;20.17;98.88
32033;BME280;31720;52.638;9.216;2023-06-22T06:50:49;101604.03;;;20.26;98.95
32033;BME280;31720;52.638;9.216;2023-06-22T06:53:50;101601.94;;;20.30;98.40
32033;BME280;31720;52.638;9.216;2023-06-22T06:56:51;101596.13;;;20.36;99.02
32033;BME280;31720;52.638;9.216;2023-06-22T06:59:53;101598.28;;;20.42;95.89
32033;BME280;31720;52.638;9.216;2023-06-22T07:02:55;101604.38;;;20.44;96.71
32033;BME280;31720;52.638;9.216;2023-06-22T07:05:57;101607.75;;;20.46;96.96
32033;BME280;31720;52.638;9.216;2023-06-22T07:08:58;101602.78;;;20.52;96.76
32033;BME280;31720;52.638;9.216;2023-06-22T07:11:59;101602.53;;;20.56;99.31
32033;BME280;31720;52.638;9.216;2023-06-22T07:15:02;101598.66;;;20.60;98.19
32033;BME280;31720;52.638;9.216;2023-06-22T07:18:05;101602.53;;;20.67;96.55
32033;BME280;31720;52.638;9.216;2023-06-22T07:21:06;101599.34;;;20.73;95.87
32033;BME280;31720;52.638;9.216;2023-06-22T07:24:08;101591.78;;;20.78;94.93
32033;BME280;31720;52.638;9.216;2023-06-22T07:27:09;101591.25;;;20.84;93.95
32033;BME280;31720;52.638;9.216;2023-06-22T07:30:12;101586.88;;;20.94;93.00
32033;BME280;31720;52.638;9.216;2023-06-22T07:33:15;101584.59;;;21.11;90.94
32033;BME280;31720;52.638;9.216;2023-06-22T07:36:17;101584.19;;;21.15;92.22
32033;BME280;31720;52.638;9.216;2023-06-22T07:39:19;101584.09;;;21.17;92.50
32033;BME280;31720;52.638;9.216;2023-06-22T07:42:25;101585.97;;;21.26;92.86
32033;BME280;31720;52.638;9.216;2023-06-22T07:45:27;101591.13;;;21.39;89.43
32033;BME280;31720;52.638;9.216;2023-06-22T07:48:29;101588.47;;;21.39;91.09
32033;BME280;31720;52.638;9.216;2023-06-22T07:51:31;101578.25;;;21.44;92.11
32033;BME280;31720;52.638;9.216;2023-06-22T07:54:32;101584.16;;;21.47;90.88
32033;BME280;31720;52.638;9.216;2023-06-22T07:57:33;101582.78;;;21.53;92.05
32033;BME280;31720;52.638;9.216;2023-06-22T08:00:36;101575.53;;;21.65;91.04
32033;BME280;31720;52.638;9.216;2023-06-22T08:03:38;101570.03;;;21.66;90.94
32033;BME280;31720;52.638;9.216;2023-06-22T08:06:41;101572.47;;;21.79;90.46
32033;BME280;31720;52.638;9.216;2023-06-22T08:09:46;101574.50;;;21.87;89.10
32033;BME280;31720;52.638;9.216;2023-06-22T08:12:48;101571.81;;;21.87;90.23
32033;BME280;31720;52.638;9.216;2023-06-22T08:15:49;101572.50;;;21.89;87.11
32033;BME280;31720;52.638;9.216;2023-06-22T08:18:52;101562.81;;;21.97;87.43
32033;BME280;31720;52.638;9.216;2023-06-22T08:21:53;101564.00;;;22.04;86.86
32033;BME280;31720;52.638;9.216;2023-06-22T08:24:54;101564.06;;;22.24;84.93
32033;BME280;31720;52.638;9.216;2023-06-22T08:27:56;101561.56;;;22.32;86.21
32033;BME280;31720;52.638;9.216;2023-06-22T08:30:57;101559.16;;;22.39;85.61
32033;BME280;31720;52.638;9.216;2023-06-22T08:34:00;101567.66;;;22.53;84.46
32033;BME280;31720;52.638;9.216;2023-06-22T08:37:01;101566.50;;;22.56;84.82
32033;BME280;31720;52.638;9.216;2023-06-22T08:40:08;101553.53;;;22.61;84.09
32033;BME280;31720;52.638;9.216;2023-06-22T08:43:10;101560.47;;;22.73;83.80
32033;BME280;31720;52.638;9.216;2023-06-22T08:46:12;101556.66;;;22.86;80.63
32033;BME280;31720;52.638;9.216;2023-06-22T08:49:14;101554.09;;;22.84;83.31
32033;BME280;31720;52.638;9.216;2023-06-22T08:52:17;101548.03;;;22.82;84.52
32033;BME280;31720;52.638;9.216;2023-06-22T08:55:18;101554.09;;;22.84;87.12
32033;BME280;31720;52.638;9.216;2023-06-22T08:58:20;101542.72;;;22.92;85.78
32033;BME280;31720;52.638;9.216;2023-06-22T09:01:21;101552.16;;;22.96;84.92
32033;BME280;31720;52.638;9.216;2023-06-22T09:04:24;101540.72;;;23.03;84.16
32033;BME280;31720;52.638;9.216;2023-06-22T09:07:25;101542.25;;;23.06;85.32
32033;BME280;31720;52.638;9.216;2023-06-22T09:10:27;101542.50;;;23.32;83.31
32033;BME280;31720;52.638;9.216;2023-06-22T09:13:29;101534.84;;;23.37;82.13
32033;BME280;31720;52.638;9.216;2023-06-22T09:16:31;101537.53;;;23.37;83.29
32033;BME280;31720;52.638;9.216;2023-06-22T09:19:34;101526.22;;;23.43;84.20
32033;BME280;31720;52.638;9.216;2023-06-22T09:22:35;101522.56;;;23.44;85.64
32033;BME280;31720;52.638;9.216;2023-06-22T09:25:36;101524.66;;;23.50;87.46
32033;BME280;31720;52.638;9.216;2023-06-22T09:28:38;101514.19;;;23.47;87.58
32033;BME280;31720;52.638;9.216;2023-06-22T09:31:39;101505.56;;;23.53;83.69
32033;BME280;31720;52.638;9.216;2023-06-22T09:34:42;101513.28;;;23.66;83.46
32033;BME280;31720;52.638;9.216;2023-06-22T09:37:43;101499.94;;;23.84;79.06
32033;BME280;31720;52.638;9.216;2023-06-22T09:40:45;101493.78;;;23.74;81.02
32033;BME280;31720;52.638;9.216;2023-06-22T09:43:46;101498.47;;;23.72;82.25
32033;BME280;31720;52.638;9.216;2023-06-22T09:46:48;101500.97;;;23.73;84.46
32033;BME280;31720;52.638;9.216;2023-06-22T09:49:50;101492.38;;;23.70;85.11
32033;BME280;31720;52.638;9.216;2023-06-22T09:52:52;101495.31;;;23.76;84.01
32033;BME280;31720;52.638;9.216;2023-06-22T09:55:54;101490.81;;;23.77;82.91
32033;BME280;31720;52.638;9.216;2023-06-22T09:58:57;101488.56;;;23.72;83.79
32033;BME280;31720;52.638;9.216;2023-06-22T10:01:58;101480.66;;;23.71;87.11
32033;BME280;31720;52.638;9.216;2023-06-22T10:05:01;101482.19;;;23.73;86.96
32033;BME280;31720;52.638;9.216;2023-06-22T10:08:02;101472.25;;;23.84;85.89
32033;BME280;31720;52.638;9.216;2023-06-22T10:11:04;101478.81;;;24.17;83.48
32033;BME280;31720;52.638;9.216;2023-06-22T10:14:05;101472.16;;;24.39;80.92
32033;BME280;31720;52.638;9.216;2023-06-22T10:17:07;101464.81;;;24.41;81.59
32033;BME280;31720;52.638;9.216;2023-06-22T10:20:10;101470.34;;;24.39;82.53
32033;BME280;31720;52.638;9.216;2023-06-22T10:23:12;101469.41;;;24.48;82.72
32033;BME280;31720;52.638;9.216;2023-06-22T10:26:14;101465.63;;;24.59;85.33
32033;BME280;31720;52.638;9.216;2023-06-22T10:29:15;101466.25;;;24.71;80.07
32033;BME280;31720;52.638;9.216;2023-06-22T10:32:16;101467.75;;;24.73;79.26
32033;BME280;31720;52.638;9.216;2023-06-22T10:35:19;101459.38;;;24.76;78.87
32033;BME280;31720;52.638;9.216;2023-06-22T10:38:20;101454.31;;;24.73;81.58
32033;BME280;31720;52.638;9.216;2023-06-22T10:41:22;101450.84;;;24.81;80.13
32033;BME280;31720;52.638;9.216;2023-06-22T10:44:23;101456.38;;;24.79;80.92
32033;BME280;31720;52.638;9.216;2023-06-22T10:47:24;101456.75;;;24.85;80.39
32033;BME280;31720;52.638;9.216;2023-06-22T10:50:27;101455.28;;;24.90;79.57
32033;BME280;31720;52.638;9.216;2023-06-22T10:53:28;101455.34;;;24.98;77.44
32033;BME280;31720;52.638;9.216;2023-06-22T10:56:30;101452.00;;;25.04;79.67
32033;BME280;31720;52.638;9.216;2023-06-22T10:59:33;101452.66;;;25.06;80.42
32033;BME280;31720;52.638;9.216;2023-06-22T11:02:35;101451.25;;;25.12;76.86
32033;BME280;31720;52.638;9.216;2023-06-22T11:05:38;101445.69;;;25.14;78.62
32033;BME280;31720;52.638;9.216;2023-06-22T11:08:39;101440.50;;;25.20;78.52
32033;BME280;31720;52.638;9.216;2023-06-22T11:11:40;101452.97;;;25.21;76.58
32033;BME280;31720;52.638;9.216;2023-06-22T11:14:42;101439.34;;;25.23;75.60
32033;BME280;31720;52.638;9.216;2023-06-22T11:17:43;101435.28;;;25.19;77.12
32033;BME280;31720;52.638;9.216;2023-06-22T11:20:45;101431.66;;;25.28;78.35
32033;BME280;31720;52.638;9.216;2023-06-22T11:23:47;101434.19;;;25.38;77.50
32033;BME280;31720;52.638;9.216;2023-06-22T11:26:51;101419.72;;;25.39;79.02
32033;BME280;31720;52.638;9.216;2023-06-22T11:29:53;101424.16;;;25.48;74.27
32033;BME280;31720;52.638;9.216;2023-06-22T11:32:54;101415.94;;;25.49;76.08
32033;BME280;31720;52.638;9.216;2023-06-22T11:35:57;101415.06;;;25.41;76.06
32033;BME280;31720;52.638;9.216;2023-06-22T11:38:58;101412.69;;;25.38;73.54
32033;BME280;31720;52.638;9.216;2023-06-22T11:41:59;101415.38;;;25.38;75.23
32033;BME280;31720;52.638;9.216;2023-06-22T11:45:01;101402.75;;;25.30;77.73
32033;BME280;31720;52.638;9.216;2023-06-22T11:48:05;101404.47;;;25.39;76.06
32033;BME280;31720;52.638;9.216;2023-06-22T11:51:08;101402.44;;;25.41;76.37
32033;BME280;31720;52.638;9.216;2023-06-22T11:54:09;101397.06;;;25.41;76.75
32033;BME280;31720;52.638;9.216;2023-06-22T11:57:10;101393.16;;;25.36;77.64
32033;BME280;31720;52.638;9.216;2023-06-22T12:00:12;101392.19;;;25.45;76.28
32033;BME280;31720;52.638;9.216;2023-06-22T12:03:16;101385.00;;;25.70;75.65
32033;BME280;31720;52.638;9.216;2023-06-22T12:06:19;101379.50;;;25.79;75.80
32033;BME280;31720;52.638;9.216;2023-06-22T12:09:20;101381.56;;;25.94;74.52
32033;BME280;31720;52.638;9.216;2023-06-22T12:12:21;101370.13;;;26.00;73.47
32033;BME280;31720;52.638;9.216;2023-06-22T12:15:23;101374.31;;;26.11;71.95
32033;BME280;31720;52.638;9.216;2023-06-22T12:18:24;101365.59;;;26.17;71.89
32033;BME280;31720;52.638;9.216;2023-06-22T12:21:27;101356.63;;;26.24;71.84
32033;BME280;31720;52.638;9.216;2023-06-22T12:24:29;101359.88;;;26.44;72.44
32033;BME280;31720;52.638;9.216;2023-06-22T12:27:30;101357.13;;;26.52;69.28
32033;BME280;31720;52.638;9.216;2023-06-22T12:30:32;101350.56;;;26.55;68.58
32033;BME280;31720;52.638;9.216;2023-06-22T12:33:33;101350.56;;;26.63;70.24
32033;BME280;31720;52.638;9.216;2023-06-22T12:36:36;101346.50;;;26.67;69.75
32033;BME280;31720;52.638;9.216;2023-06-22T12:39:41;101336.19;;;26.79;69.16
32033;BME280;31720;52.638;9.216;2023-06-22T12:42:42;101336.34;;;26.77;69.47
32033;BME280;31720;52.638;9.216;2023-06-22T12:45:43;101325.88;;;26.83;67.95
32033;BME280;31720;52.638;9.216;2023-06-22T12:48:45;101313.94;;;26.77;70.14
32033;BME280;31720;52.638;9.216;2023-06-22T12:51:47;101315.28;;;26.81;72.45
32033;BME280;31720;52.638;9.216;2023-06-22T12:54:49;101306.34;;;26.80;69.20
32033;BME280;31720;52.638;9.216;2023-06-22T12:57:50;101306.03;;;26.75;70.30
32033;BME280;31720;52.638;9.216;2023-06-22T13:00:52;101296.22;;;26.83;66.41
32033;BME280;31720;52.638;9.216;2023-06-22T13:03:53;101300.84;;;27.13;69.18
32033;BME280;31720;52.638;9.216;2023-06-22T13:06:56;101298.00;;;27.61;63.00
32033;BME280;31720;52.638;9.216;2023-06-22T13:09:57;101300.31;;;27.72;63.35
32033;BME280;31720;52.638;9.216;2023-06-22T13:12:58;101295.28;;;27.61;63.12
32033;BME280;31720;52.638;9.216;2023-06-22T13:16:00;101298.03;;;27.29;64.38
32033;BME280;31720;52.638;9.216;2023-06-22T13:19:02;101303.53;;;27.05;65.71
32033;BME280;31720;52.638;9.216;2023-06-22T13:22:05;101300.06;;;26.88;67.28
32033;BME280;31720;52.638;9.216;2023-06-22T13:25:08;101287.28;;;26.82;67.16
32033;BME280;31720;52.638;9.216;2023-06-22T13:28:12;101297.91;;;26.84;66.13
32033;BME280;31720;52.638;9.216;2023-06-22T13:31:13;101289.47;;;26.87;66.26
32033;BME280;31720;52.638;9.216;2023-06-22T13:34:15;101299.09;;;26.81;69.28
32033;BME280;31720;52.638;9.216;2023-06-22T13:37:17;101297.25;;;26.81;68.45
32033;BME280;31720;52.638;9.216;2023-06-22T13:40:19;101292.47;;;26.92;67.43
32033;BME280;31720;52.638;9.216;2023-06-22T13:43:20;101292.63;;;26.98;66.51
32033;BME280;31720;52.638;9.216;2023-06-22T13:46:22;101293.63;;;26.97;65.99
32033;BME280;31720;52.638;9.216;2023-06-22T13:49:23;101297.75;;;26.85;68.96
32033;BME280;31720;52.638;9.216;2023-06-22T13:52:26;101292.56;;;26.75;68.38
32033;BME280;31720;52.638;9.216;2023-06-22T13:55:27;101296.31;;;26.58;71.01
32033;BME280;31720;52.638;9.216;2023-06-22T13:58:28;101285.38;;;26.51;71.12
32033;BME280;31720;52.638;9.216;2023-06-22T14:01:30;101284.72;;;26.49;71.56
32033;BME280;31720;52.638;9.216;2023-06-22T14:04:31;101273.59;;;26.36;69.26
32033;BME280;31720;52.638;9.216;2023-06-22T14:07:34;101264.34;;;26.30;70.57
32033;BME280;31720;52.638;9.216;2023-06-22T14:10:36;101257.78;;;26.25;70.93
32033;BME280;31720;52.638;9.216;2023-06-22T14:13:37;101249.72;;;26.17;72.35
32033;BME280;31720;52.638;9.216;2023-06-22T14:16:38;101244.88;;;26.04;73.55
32033;BME280;31720;52.638;9.216;2023-06-22T14:19:40;101245.53;;;25.98;80.57
32033;BME280;31720;52.638;9.216;2023-06-22T14:22:42;101229.91;;;25.85;97.32
32033;BME280;31720;52.638;9.216;2023-06-22T14:25:43;101219.28;;;25.51;100.00
32033;BME280;31720;52.638;9.216;2023-06-22T14:28:45;101213.38;;;25.31;100.00
32033;BME280;31720;52.638;9.216;2023-06-22T14:31:49;101218.84;;;25.05;100.00
32033;BME280;31720;52.638;9.216;2023-06-22T14:34:50;101226.69;;;24.82;100.00
32033;BME280;31720;52.638;9.216;2023-06-22T14:37:53;101249.44;;;24.62;100.00
32033;BME280;31720;52.638;9.216;2023-06-22T14:40:54;101265.53;;;24.53;100.00
32033;BME280;31720;52.638;9.216;2023-06-22T14:43:56;101264.19;;;24.49;100.00
32033;BME280;31720;52.638;9.216;2023-06-22T14:46:57;101286.47;;;24.42;100.00
32033;BME280;31720;52.638;9.216;2023-06-22T14:49:58;101292.22;;;24.29;100.00
32033;BME280;31720;52.638;9.216;2023-06-22T14:53:01;101297.03;;;24.17;100.00
32033;BME280;31720;52.638;9.216;2023-06-22T14:56:03;101294.91;;;24.03;100.00
32033;BME280;31720;52.638;9.216;2023-06-22T14:59:04;101296.69;;;23.94;100.00
32033;BME280;31720;52.638;9.216;2023-06-22T15:02:06;101301.69;;;23.89;100.00
32033;BME280;31720;52.638;9.216;2023-06-22T15:05:07;101287.38;;;23.89;100.00
32033;BME280;31720;52.638;9.216;2023-06-22T15:08:10;101280.97;;;23.82;100.00
32033;BME280;31720;52.638;9.216;2023-06-22T15:11:11;101261.28;;;23.73;100.00
32033;BME280;31720;52.638;9.216;2023-06-22T15:14:13;101245.69;;;23.59;100.00
32033;BME280;31720;52.638;9.216;2023-06-22T15:17:14;101237.63;;;23.59;100.00
32033;BME280;31720;52.638;9.216;2023-06-22T15:20:16;101212.56;;;23.50;100.00
32033;BME280;31720;52.638;9.216;2023-06-22T15:23:18;101159.00;;;23.40;100.00
32033;BME280;31720;52.638;9.216;2023-06-22T15:26:20;101125.91;;;23.14;100.00
32033;BME280;31720;52.638;9.216;2023-06-22T15:29:21;101138.41;;;23.05;100.00
32033;BME280;31720;52.638;9.216;2023-06-22T15:32:23;101128.44;;;22.97;100.00
32033;BME280;31720;52.638;9.216;2023-06-22T15:35:24;101130.06;;;22.90;100.00
32033;BME280;31720;52.638;9.216;2023-06-22T15:38:27;101141.28;;;22.76;100.00
32033;BME280;31720;52.638;9.216;2023-06-22T15:41:28;101149.78;;;22.71;100.00
32033;BME280;31720;52.638;9.216;2023-06-22T15:44:29;101160.22;;;22.65;100.00
32033;BME280;31720;52.638;9.216;2023-06-22T15:47:30;101164.91;;;22.63;100.00
32033;BME280;31720;52.638;9.216;2023-06-22T15:50:32;101153.09;;;22.56;100.00